Time;durP1;ratioP1;P1;durP2;ratioP2;P2;SDS_P1;SDS_P2;PMS_P1;PMS_P2;Temp;Humidity;BMP_temperature;BMP_pressure;BME280_temperature;BME280_humidity;BME280_pressure;Samples;Min_cycle;Max_cycle;Signal;HPM_P1;HPM_P2
2023/02/25 00:01:35;;;;;;;12.65;4.10;;;;;;;;;;5051339;28;20199;-71
2023/02/25 00:04:03;;;;;;;14.50;5.65;;;;;;;;;;5068017;22;20762;-70
2023/02/25 00:06:30;;;;;;;10.35;3.60;;;;;;;;;;5052629;28;20215;-70
2023/02/25 00:08:57;;;;;;;12.13;3.78;;;;;;;;;;5050205;28;20586;-70
2023/02/25 00:11:27;;;;;;;10.38;4.05;;;;;;;;;;5038626;28;20200;-70
2023/02/25 00:13:55;;;;;;;11.98;3.88;;;;;;;;;;5033273;28;20195;-70
2023/02/25 00:16:24;;;;;;;17.25;4.75;;;;;;;;;;5032823;28;20235;-70
2023/02/25 00:18:53;;;;;;;17.60;4.85;;;;;;;;;;5032440;28;20219;-70
2023/02/25 00:21:21;;;;;;;17.10;3.78;;;;;;;;;;5041011;28;20209;-70
2023/02/25 00:23:49;;;;;;;8.10;4.28;;;;;;;;;;5041766;28;20202;-70
2023/02/25 00:26:16;;;;;;;9.55;3.90;;;;;;;;;;5035429;28;20194;-70
2023/02/25 00:28:43;;;;;;;20.35;3.92;;;;;;;;;;5050907;28;20195;-69
2023/02/25 00:31:11;;;;;;;22.30;7.28;;;;;;;;;;5040860;28;20199;-70
2023/02/25 00:33:40;;;;;;;16.42;5.60;;;;;;;;;;5031987;28;20199;-70
2023/02/25 00:36:08;;;;;;;13.35;5.68;;;;;;;;;;5032886;28;20226;-70
2023/02/25 00:38:36;;;;;;;17.20;5.53;;;;;;;;;;5038053;28;20214;-70
2023/02/25 00:41:07;;;;;;;23.85;5.75;;;;;;;;;;5032564;28;20203;-69
2023/02/25 00:43:34;;;;;;;18.15;5.50;;;;;;;;;;5032221;28;20203;-69
2023/02/25 00:46:02;;;;;;;23.95;6.03;;;;;;;;;;5049255;28;20223;-70
2023/02/25 00:48:29;;;;;;;11.50;3.97;;;;;;;;;;5052717;28;20202;-69
2023/02/25 00:50:57;;;;;;;14.75;5.93;;;;;;;;;;5038431;28;20199;-70
2023/02/25 00:53:24;;;;;;;19.65;4.28;;;;;;;;;;5032456;28;20206;-71
2023/02/25 00:55:58;;;;;;;10.45;4.80;;;;;;;;;;5037776;28;20215;-70
2023/02/25 00:58:25;;;;;;;20.90;5.28;;;;;;;;;;5047188;28;20211;-70
2023/02/25 01:00:52;;;;;;;17.17;5.40;;;;;;;;;;5032606;28;20207;-70
2023/02/25 01:03:19;;;;;;;13.70;5.40;;;;;;;;;;5048169;28;20209;-70
2023/02/25 01:05:48;;;;;;;10.93;3.60;;;;;;;;;;5052172;28;20223;-70
2023/02/25 01:08:17;;;;;;;26.98;5.88;;;;;;;;;;5049737;28;20276;-69
2023/02/25 01:10:44;;;;;;;11.98;4.25;;;;;;;;;;5051701;28;20664;-70
2023/02/25 01:13:11;;;;;;;9.75;3.65;;;;;;;;;;5050690;28;20221;-70
2023/02/25 01:15:38;;;;;;;15.70;4.82;;;;;;;;;;5043613;28;20215;-70
2023/02/25 01:18:05;;;;;;;10.52;4.40;;;;;;;;;;5032144;28;20210;-69
2023/02/25 01:20:32;;;;;;;9.13;3.72;;;;;;;;;;5031805;28;20225;-70
2023/02/25 01:22:59;;;;;;;9.05;3.72;;;;;;;;;;5031783;28;20199;-70
2023/02/25 01:25:28;;;;;;;20.58;5.18;;;;;;;;;;5031839;28;20234;-70
2023/02/25 01:27:55;;;;;;;11.90;4.75;;;;;;;;;;5032376;28;20532;-70
2023/02/25 01:30:22;;;;;;;10.02;3.67;;;;;;;;;;5046194;28;20270;-70
2023/02/25 01:32:49;;;;;;;18.63;4.25;;;;;;;;;;5032079;28;20223;-70
2023/02/25 01:35:17;;;;;;;17.08;4.13;;;;;;;;;;5031874;28;20225;-69
2023/02/25 01:37:45;;;;;;;11.07;3.80;;;;;;;;;;5037089;28;20203;-70
2023/02/25 01:40:15;;;;;;;13.15;2.80;;;;;;;;;;5036986;28;20590;-70
2023/02/25 01:42:44;;;;;;;17.05;3.30;;;;;;;;;;5049297;28;20199;-70
2023/02/25 01:45:29;;;;;;;15.45;2.95;;;;;;;;;;5049453;28;20217;-70
2023/02/25 01:47:59;;;;;;;19.27;3.67;;;;;;;;;;5032958;28;20199;-67
2023/02/25 01:50:29;;;;;;;10.82;2.88;;;;;;;;;;5031682;28;20210;-68
2023/02/25 01:52:57;;;;;;;8.50;3.15;;;;;;;;;;5031001;28;20199;-68
2023/02/25 01:55:24;;;;;;;9.27;3.30;;;;;;;;;;5031150;28;20226;-68
2023/02/25 01:57:53;;;;;;;7.97;2.95;;;;;;;;;;5031832;28;20576;-69
2023/02/25 02:00:20;;;;;;;11.68;3.13;;;;;;;;;;5030766;28;20218;-68
2023/02/25 02:02:49;;;;;;;12.43;3.42;;;;;;;;;;5036797;28;20199;-69
2023/02/25 02:05:16;;;;;;;14.77;3.22;;;;;;;;;;5051474;28;20283;-68
2023/02/25 02:07:43;;;;;;;20.02;3.83;;;;;;;;;;5049440;28;20206;-70
2023/02/25 02:10:11;;;;;;;14.10;3.15;;;;;;;;;;5050948;28;20660;-70
2023/02/25 02:12:39;;;;;;;16.17;2.60;;;;;;;;;;5031457;28;20479;-70
2023/02/25 02:15:09;;;;;;;6.13;2.88;;;;;;;;;;5031527;28;20220;-70
2023/02/25 02:17:39;;;;;;;9.00;3.40;;;;;;;;;;5045105;28;20198;-69
2023/02/25 02:20:11;;;;;;;12.43;3.92;;;;;;;;;;5051326;28;20561;-69
2023/02/25 02:22:41;;;;;;;12.05;3.85;;;;;;;;;;5042376;28;20557;-70
2023/02/25 02:25:19;;;;;;;7.03;3.35;;;;;;;;;;5041773;28;20214;-70
2023/02/25 02:27:59;;;;;;;30.02;4.07;;;;;;;;;;5055141;28;20575;-70
2023/02/25 02:30:34;;;;;;;5.68;1.92;;;;;;;;;;5054871;28;20575;-70
2023/02/25 02:33:04;;;;;;;11.52;3.65;;;;;;;;;;5052861;28;20195;-70
2023/02/25 02:35:36;;;;;;;20.10;4.28;;;;;;;;;;5033423;28;20211;-70
2023/02/25 02:38:08;;;;;;;13.70;4.05;;;;;;;;;;5054870;28;20212;-70
2023/02/25 02:40:47;;;;;;;9.75;4.68;;;;;;;;;;5054575;28;20226;-69
2023/02/25 02:43:23;;;;;;;9.05;3.00;;;;;;;;;;5051888;28;20195;-69
2023/02/25 02:45:56;;;;;;;24.42;3.70;;;;;;;;;;5034697;28;20218;-70
2023/02/25 02:48:29;;;;;;;11.77;4.10;;;;;;;;;;5035287;28;20555;-69
2023/02/25 02:50:58;;;;;;;17.30;3.92;;;;;;;;;;5049325;28;20191;-70
2023/02/25 02:53:27;;;;;;;9.43;3.88;;;;;;;;;;5054233;28;20198;-69
2023/02/25 02:55:55;;;;;;;12.20;4.20;;;;;;;;;;5035583;28;20227;-69
2023/02/25 02:58:23;;;;;;;20.70;4.10;;;;;;;;;;5049323;28;20210;-69
2023/02/25 03:00:55;;;;;;;11.40;3.47;;;;;;;;;;5034788;28;20226;-69
2023/02/25 03:03:35;;;;;;;14.13;4.70;;;;;;;;;;5042131;28;20253;-70
2023/02/25 03:06:05;;;;;;;14.35;4.18;;;;;;;;;;5054476;28;20226;-70
2023/02/25 03:08:34;;;;;;;17.20;4.97;;;;;;;;;;5054427;28;20225;-69
2023/02/25 03:11:01;;;;;;;16.05;4.20;;;;;;;;;;5054429;28;20194;-70
2023/02/25 03:13:28;;;;;;;14.00;4.00;;;;;;;;;;5053926;28;20209;-69
2023/02/25 03:15:56;;;;;;;13.50;3.78;;;;;;;;;;5054344;28;20215;-70
2023/02/25 03:18:24;;;;;;;18.42;4.80;;;;;;;;;;5054187;28;20209;-70
2023/02/25 03:20:54;;;;;;;10.80;4.13;;;;;;;;;;5051824;28;20214;-69
2023/02/25 03:23:24;;;;;;;10.27;3.88;;;;;;;;;;5042760;28;20203;-69
2023/02/25 03:25:52;;;;;;;13.65;4.35;;;;;;;;;;5034563;28;20223;-69
2023/02/25 03:28:26;;;;;;;21.23;4.55;;;;;;;;;;5049624;28;20205;-69
2023/02/25 03:30:55;;;;;;;12.60;3.90;;;;;;;;;;5033723;28;20195;-70
2023/02/25 03:33:27;;;;;;;24.13;4.03;;;;;;;;;;5033726;28;20226;-70
2023/02/25 03:35:56;;;;;;;25.50;3.63;;;;;;;;;;5032004;28;20223;-70
2023/02/25 03:38:27;;;;;;;19.77;4.60;;;;;;;;;;5037053;28;20227;-69
2023/02/25 03:40:56;;;;;;;16.10;4.30;;;;;;;;;;5053927;28;20225;-70
2023/02/25 03:43:26;;;;;;;15.30;4.45;;;;;;;;;;5053321;28;20206;-69
2023/02/25 03:45:53;;;;;;;17.45;3.58;;;;;;;;;;5053677;28;20301;-70
2023/02/25 03:48:20;;;;;;;12.80;3.95;;;;;;;;;;5053258;28;20198;-70
2023/02/25 03:50:49;;;;;;;6.32;2.25;;;;;;;;;;5053827;28;20194;-70
2023/02/25 03:53:16;;;;;;;9.65;3.60;;;;;;;;;;5040467;28;20199;-69
2023/02/25 03:55:44;;;;;;;13.50;4.78;;;;;;;;;;5039659;28;20227;-70
2023/02/25 03:58:11;;;;;;;12.68;3.47;;;;;;;;;;5033622;28;20234;-70
2023/02/25 04:00:39;;;;;;;17.42;4.40;;;;;;;;;;5032016;28;20219;-70
2023/02/25 04:03:06;;;;;;;13.80;3.50;;;;;;;;;;5032593;28;20210;-70
2023/02/25 04:05:34;;;;;;;10.70;3.53;;;;;;;;;;5033260;28;20231;-70
2023/02/25 04:08:02;;;;;;;12.82;3.55;;;;;;;;;;5033220;28;20739;-69
2023/02/25 04:10:29;;;;;;;15.25;4.82;;;;;;;;;;5032784;28;20283;-70
2023/02/25 04:12:57;;;;;;;11.00;3.25;;;;;;;;;;5049971;28;20214;-69
2023/02/25 04:15:27;;;;;;;11.23;3.50;;;;;;;;;;5053025;28;20558;-70
2023/02/25 04:17:54;;;;;;;16.05;3.53;;;;;;;;;;5053561;28;20293;-69
2023/02/25 04:20:21;;;;;;;15.45;3.88;;;;;;;;;;5052781;28;20225;-70
2023/02/25 04:22:48;;;;;;;18.73;4.25;;;;;;;;;;5052486;28;20206;-70
2023/02/25 04:25:15;;;;;;;5.53;2.78;;;;;;;;;;5052982;28;20218;-70
2023/02/25 04:27:42;;;;;;;10.90;2.92;;;;;;;;;;5050441;28;20202;-70
2023/02/25 04:30:12;;;;;;;10.30;3.88;;;;;;;;;;5053244;28;20195;-70
2023/02/25 04:32:39;;;;;;;10.18;3.53;;;;;;;;;;5040357;28;20203;-70
2023/02/25 04:35:10;;;;;;;10.60;2.97;;;;;;;;;;5032900;28;20594;-70
2023/02/25 04:37:37;;;;;;;12.88;3.45;;;;;;;;;;5032084;28;20199;-70
2023/02/25 04:40:10;;;;;;;24.63;5.57;;;;;;;;;;5032744;28;20577;-69
2023/02/25 04:42:37;;;;;;;17.83;3.35;;;;;;;;;;5043791;28;20252;-69
2023/02/25 04:45:05;;;;;;;13.90;3.75;;;;;;;;;;5052443;28;20215;-69
2023/02/25 04:47:33;;;;;;;19.77;4.22;;;;;;;;;;5049634;28;20195;-70
2023/02/25 04:50:00;;;;;;;9.88;3.45;;;;;;;;;;5052300;28;20555;-70
2023/02/25 04:52:28;;;;;;;12.32;2.63;;;;;;;;;;5051945;28;20571;-70
2023/02/25 04:54:55;;;;;;;7.97;3.10;;;;;;;;;;5052392;28;20230;-70
2023/02/25 04:57:22;;;;;;;9.25;3.00;;;;;;;;;;5052262;28;20201;-69
2023/02/25 04:59:49;;;;;;;17.52;3.22;;;;;;;;;;5049832;28;20218;-69
2023/02/25 05:02:16;;;;;;;10.40;2.97;;;;;;;;;;5052212;28;20202;-70
2023/02/25 05:04:44;;;;;;;11.45;2.97;;;;;;;;;;5044163;28;20234;-70
2023/02/25 05:07:11;;;;;;;4.45;2.63;;;;;;;;;;5031995;28;20210;-69
2023/02/25 05:09:39;;;;;;;13.35;3.10;;;;;;;;;;5032267;28;20583;-70
2023/02/25 05:12:06;;;;;;;9.13;3.83;;;;;;;;;;5032348;28;20588;-69
2023/02/25 05:14:33;;;;;;;7.03;2.92;;;;;;;;;;5030980;28;20215;-69
2023/02/25 05:17:00;;;;;;;12.30;2.70;;;;;;;;;;5032268;28;20234;-69
2023/02/25 05:19:27;;;;;;;7.30;2.75;;;;;;;;;;5031409;28;20207;-70
2023/02/25 05:21:56;;;;;;;16.40;3.92;;;;;;;;;;5032073;28;20285;-69
2023/02/25 05:24:23;;;;;;;13.07;3.25;;;;;;;;;;5031803;28;20215;-69
2023/02/25 05:26:51;;;;;;;10.38;3.72;;;;;;;;;;5030916;28;20222;-70
2023/02/25 05:29:18;;;;;;;11.63;2.70;;;;;;;;;;5043071;28;20587;-70
2023/02/25 05:31:45;;;;;;;8.95;2.65;;;;;;;;;;5051088;28;20206;-69
2023/02/25 05:34:12;;;;;;;16.13;3.08;;;;;;;;;;5031640;28;20607;-70
2023/02/25 05:36:40;;;;;;;15.30;3.17;;;;;;;;;;5031554;28;20203;-70
2023/02/25 05:39:10;;;;;;;12.93;3.17;;;;;;;;;;5040762;28;20191;-69
2023/02/25 05:41:37;;;;;;;6.78;2.83;;;;;;;;;;5051175;28;20280;-70
2023/02/25 05:44:04;;;;;;;22.63;4.05;;;;;;;;;;5051857;28;20198;-69
2023/02/25 05:46:32;;;;;;;10.38;2.65;;;;;;;;;;5048953;28;20202;-69
2023/02/25 05:48:59;;;;;;;8.57;2.30;;;;;;;;;;5051613;28;20735;-70
2023/02/25 05:51:26;;;;;;;5.40;2.25;;;;;;;;;;5051238;28;20198;-69
2023/02/25 05:53:53;;;;;;;7.53;2.97;;;;;;;;;;5051587;28;20209;-69
2023/02/25 05:56:23;;;;;;;10.32;3.33;;;;;;;;;;5051279;28;20199;-70
2023/02/25 05:58:51;;;;;;;11.65;2.50;;;;;;;;;;5053389;28;20339;-70
2023/02/25 06:01:19;;;;;;;9.30;3.03;;;;;;;;;;5052631;28;20218;-69
2023/02/25 06:03:47;;;;;;;9.52;2.60;;;;;;;;;;5049364;28;20206;-70
2023/02/25 06:06:16;;;;;;;18.63;2.90;;;;;;;;;;5065706;22;20234;-73
2023/02/25 06:08:44;;;;;;;6.55;2.28;;;;;;;;;;5050735;28;20195;-73
2023/02/25 06:11:13;;;;;;;13.60;3.95;;;;;;;;;;5035748;28;20207;-73
2023/02/25 06:13:41;;;;;;;15.32;3.05;;;;;;;;;;5035503;28;20202;-73
2023/02/25 06:16:09;;;;;;;17.73;4.20;;;;;;;;;;5051844;28;20325;-73
2023/02/25 06:18:36;;;;;;;13.27;3.85;;;;;;;;;;5054921;28;20194;-73
2023/02/25 06:21:04;;;;;;;8.23;2.50;;;;;;;;;;5053071;28;20221;-73
2023/02/25 06:23:31;;;;;;;8.88;2.58;;;;;;;;;;5054669;28;20297;-73
2023/02/25 06:25:58;;;;;;;17.58;3.40;;;;;;;;;;5051042;28;20214;-73
2023/02/25 06:28:25;;;;;;;11.27;2.72;;;;;;;;;;5055114;28;20659;-72
2023/02/25 06:30:54;;;;;;;6.03;2.80;;;;;;;;;;5054263;28;20672;-73
2023/02/25 06:33:21;;;;;;;6.40;3.15;;;;;;;;;;5054236;28;20208;-73
2023/02/25 06:35:51;;;;;;;9.98;3.40;;;;;;;;;;5054737;28;20219;-73
2023/02/25 06:38:18;;;;;;;14.30;3.15;;;;;;;;;;5049779;28;20269;-73
2023/02/25 06:40:46;;;;;;;6.15;3.33;;;;;;;;;;5054547;28;20256;-73
2023/02/25 06:43:13;;;;;;;12.50;2.88;;;;;;;;;;5051304;28;20567;-73
2023/02/25 06:45:40;;;;;;;8.85;3.53;;;;;;;;;;5051883;28;20226;-73
2023/02/25 06:48:08;;;;;;;19.00;3.40;;;;;;;;;;5054569;28;20194;-73
2023/02/25 06:50:35;;;;;;;7.20;2.72;;;;;;;;;;5042571;28;20218;-74
2023/02/25 06:53:02;;;;;;;10.80;2.90;;;;;;;;;;5034705;28;20571;-72
2023/02/25 06:55:29;;;;;;;9.00;3.10;;;;;;;;;;5033784;28;20588;-72
2023/02/25 06:57:56;;;;;;;21.42;2.83;;;;;;;;;;5033527;28;20652;-79
2023/02/25 07:00:24;;;;;;;12.93;3.20;;;;;;;;;;5054357;28;20550;-73
2023/02/25 07:02:51;;;;;;;10.07;2.40;;;;;;;;;;5053916;28;20695;-73
2023/02/25 07:05:19;;;;;;;6.47;2.55;;;;;;;;;;5053830;28;20230;-72
2023/02/25 07:07:46;;;;;;;12.52;3.42;;;;;;;;;;5037332;28;20195;-74
2023/02/25 07:10:14;;;;;;;5.93;3.03;;;;;;;;;;5034374;28;20207;-74
2023/02/25 07:12:41;;;;;;;8.65;2.80;;;;;;;;;;5034277;28;20205;-74
2023/02/25 07:15:08;;;;;;;8.98;2.90;;;;;;;;;;5034387;28;20219;-74
2023/02/25 07:17:36;;;;;;;15.88;3.15;;;;;;;;;;5034333;28;20664;-74
2023/02/25 07:20:03;;;;;;;13.85;2.70;;;;;;;;;;5051449;28;20225;-74
2023/02/25 07:22:31;;;;;;;7.07;2.90;;;;;;;;;;5053840;28;20195;-74
2023/02/25 07:24:59;;;;;;;10.77;2.35;;;;;;;;;;5054158;28;20218;-74
2023/02/25 07:27:26;;;;;;;10.88;2.80;;;;;;;;;;5053622;28;20194;-74
2023/02/25 07:29:53;;;;;;;13.07;2.55;;;;;;;;;;5054001;28;20203;-75
2023/02/25 07:32:20;;;;;;;5.32;2.45;;;;;;;;;;5054154;28;20245;-74
2023/02/25 07:34:47;;;;;;;11.27;3.30;;;;;;;;;;5054085;28;20214;-74
2023/02/25 07:37:15;;;;;;;12.20;3.25;;;;;;;;;;5052432;28;20210;-74
2023/02/25 07:39:43;;;;;;;6.15;2.35;;;;;;;;;;5043838;28;20203;-74
2023/02/25 07:42:10;;;;;;;8.38;2.97;;;;;;;;;;5033589;28;20215;-74
2023/02/25 07:44:37;;;;;;;11.88;3.83;;;;;;;;;;5047884;28;20234;-74
2023/02/25 07:47:04;;;;;;;9.50;3.58;;;;;;;;;;5053774;28;20206;-74
2023/02/25 07:49:31;;;;;;;16.17;4.20;;;;;;;;;;5053207;28;20663;-74
2023/02/25 07:51:59;;;;;;;12.88;2.80;;;;;;;;;;5051191;28;20195;-74
2023/02/25 07:54:26;;;;;;;23.17;4.20;;;;;;;;;;5047129;28;20195;-73
2023/02/25 07:56:55;;;;;;;13.88;2.80;;;;;;;;;;5033500;28;20206;-73
2023/02/25 07:59:22;;;;;;;13.32;3.33;;;;;;;;;;5033016;28;20222;-74
2023/02/25 08:01:49;;;;;;;5.70;2.20;;;;;;;;;;5033240;28;20243;-74
2023/02/25 08:04:16;;;;;;;13.18;3.20;;;;;;;;;;5034009;28;20203;-74
2023/02/25 08:06:44;;;;;;;7.55;2.28;;;;;;;;;;5038242;28;20207;-74
2023/02/25 08:09:11;;;;;;;11.57;3.47;;;;;;;;;;5034825;28;20202;-75
2023/02/25 08:11:39;;;;;;;11.13;3.20;;;;;;;;;;5047969;28;20209;-74
2023/02/25 08:14:07;;;;;;;22.08;3.13;;;;;;;;;;5053466;28;20190;-74
2023/02/25 08:16:35;;;;;;;15.10;4.03;;;;;;;;;;5050053;28;20349;-74
2023/02/25 08:19:02;;;;;;;13.43;2.75;;;;;;;;;;5051517;28;20632;-74
2023/02/25 08:21:30;;;;;;;14.88;3.83;;;;;;;;;;5051844;28;20207;-74
2023/02/25 08:23:57;;;;;;;11.75;2.55;;;;;;;;;;5050635;28;20202;-74
2023/02/25 08:26:26;;;;;;;20.40;4.38;;;;;;;;;;5049751;28;20218;-75
2023/02/25 08:28:53;;;;;;;10.70;3.40;;;;;;;;;;5042695;28;20456;-74
2023/02/25 08:31:23;;;;;;;18.33;4.43;;;;;;;;;;5043364;28;20183;-74
2023/02/25 08:33:51;;;;;;;10.52;2.83;;;;;;;;;;5032785;28;20196;-74
2023/02/25 08:36:19;;;;;;;8.98;2.40;;;;;;;;;;5046473;28;20594;-74
2023/02/25 08:38:47;;;;;;;9.70;4.05;;;;;;;;;;5032816;28;20249;-73
2023/02/25 08:41:14;;;;;;;12.75;2.45;;;;;;;;;;5032433;28;20215;-73
2023/02/25 08:43:41;;;;;;;9.18;2.35;;;;;;;;;;5046404;28;20199;-74
2023/02/25 08:46:09;;;;;;;10.68;2.00;;;;;;;;;;5051844;28;20224;-73
2023/02/25 08:48:37;;;;;;;15.70;3.85;;;;;;;;;;5052337;28;20501;-74
2023/02/25 08:51:07;;;;;;;12.30;2.78;;;;;;;;;;5042418;28;20191;-74
2023/02/25 08:53:34;;;;;;;11.38;3.00;;;;;;;;;;5044653;28;20268;-74
2023/02/25 08:56:02;;;;;;;12.13;2.63;;;;;;;;;;5052256;28;20219;-74
2023/02/25 08:58:29;;;;;;;11.57;2.83;;;;;;;;;;5052184;28;20290;-74
2023/02/25 09:00:56;;;;;;;13.95;3.20;;;;;;;;;;5033221;28;20226;-74
2023/02/25 09:03:23;;;;;;;17.13;4.88;;;;;;;;;;5032047;28;20677;-74
2023/02/25 09:05:53;;;;;;;12.10;3.05;;;;;;;;;;5039075;28;20707;-74
2023/02/25 09:08:20;;;;;;;7.60;2.92;;;;;;;;;;5054090;28;20199;-74
2023/02/25 09:10:47;;;;;;;10.52;2.60;;;;;;;;;;5047836;28;20198;-74
2023/02/25 09:13:16;;;;;;;17.30;3.42;;;;;;;;;;5051161;28;20203;-74
2023/02/25 09:15:43;;;;;;;9.35;3.20;;;;;;;;;;5049648;28;20709;-74
2023/02/25 09:18:11;;;;;;;14.27;2.42;;;;;;;;;;5048627;28;20194;-74
2023/02/25 09:20:38;;;;;;;5.22;2.67;;;;;;;;;;5068420;28;20248;-73
2023/02/25 09:23:09;;;;;;;6.40;2.42;;;;;;;;;;5067899;28;20198;-74
2023/02/25 09:25:38;;;;;;;4.30;2.63;;;;;;;;;;5051557;28;20223;-75
2023/02/25 09:28:06;;;;;;;14.18;3.42;;;;;;;;;;5051310;28;20208;-75
2023/02/25 09:30:34;;;;;;;8.55;2.63;;;;;;;;;;5050335;28;20203;-75
2023/02/25 09:33:01;;;;;;;10.35;1.88;;;;;;;;;;5050508;28;20194;-76
2023/02/25 09:35:28;;;;;;;7.10;2.30;;;;;;;;;;5051912;28;20219;-76
2023/02/25 09:37:55;;;;;;;6.72;1.95;;;;;;;;;;5051931;28;20198;-75
2023/02/25 09:40:23;;;;;;;8.30;2.40;;;;;;;;;;5041203;28;20201;-74
2023/02/25 09:42:54;;;;;;;9.73;2.65;;;;;;;;;;5051316;28;20749;-74
2023/02/25 09:45:23;;;;;;;6.97;2.45;;;;;;;;;;5050830;28;20222;-80
2023/02/25 09:47:53;;;;;;;9.15;2.30;;;;;;;;;;5051137;28;20218;-75
2023/02/25 09:50:23;;;;;;;7.75;2.58;;;;;;;;;;5050824;28;20195;-75
2023/02/25 09:52:54;;;;;;;6.75;2.20;;;;;;;;;;5048335;28;20395;-74
2023/02/25 09:55:23;;;;;;;7.88;2.60;;;;;;;;;;5047618;28;20214;-75
2023/02/25 09:57:56;;;;;;;7.80;3.30;;;;;;;;;;5051553;28;20205;-75
2023/02/25 10:00:24;;;;;;;5.38;2.50;;;;;;;;;;5044563;28;20222;-75
2023/02/25 10:02:54;;;;;;;8.63;2.40;;;;;;;;;;5046459;28;20218;-75
2023/02/25 10:05:26;;;;;;;6.72;2.45;;;;;;;;;;5047617;28;20233;-74
2023/02/25 10:07:57;;;;;;;11.43;2.53;;;;;;;;;;5031297;28;20210;-74
2023/02/25 10:10:27;;;;;;;3.88;2.08;;;;;;;;;;5050891;28;20664;-74
2023/02/25 10:12:59;;;;;;;5.63;2.97;;;;;;;;;;5043912;28;20195;-74
2023/02/25 10:15:33;;;;;;;11.73;2.92;;;;;;;;;;5055470;28;20656;-74
2023/02/25 10:18:21;;;;;;;14.55;3.20;;;;;;;;;;5048453;28;20193;-74
2023/02/25 10:20:56;;;;;;;9.43;3.55;;;;;;;;;;5041051;28;20195;-74
2023/02/25 10:23:29;;;;;;;6.15;2.45;;;;;;;;;;5035034;28;20293;-74
2023/02/25 10:25:57;;;;;;;8.95;3.38;;;;;;;;;;5050090;28;20215;-74
2023/02/25 10:28:27;;;;;;;10.15;3.35;;;;;;;;;;5049558;28;20194;-75
2023/02/25 10:30:56;;;;;;;7.07;4.05;;;;;;;;;;5042519;28;20195;-73
2023/02/25 10:33:25;;;;;;;14.93;4.00;;;;;;;;;;5058961;28;20194;-74
2023/02/25 10:35:55;;;;;;;14.00;4.90;;;;;;;;;;5050803;28;20226;-74
2023/02/25 10:38:22;;;;;;;11.77;3.35;;;;;;;;;;5047381;28;20205;-74
2023/02/25 10:40:50;;;;;;;9.80;4.88;;;;;;;;;;5049062;28;20210;-74
2023/02/25 10:43:20;;;;;;;9.32;4.10;;;;;;;;;;5051895;28;20226;-74
2023/02/25 10:45:52;;;;;;;14.23;5.57;;;;;;;;;;5050832;28;20361;-74
2023/02/25 10:48:21;;;;;;;13.02;4.57;;;;;;;;;;5054239;28;20207;-74
2023/02/25 10:51:04;;;;;;;15.38;5.40;;;;;;;;;;5047577;28;20256;-74
2023/02/25 10:53:31;;;;;;;7.85;5.20;;;;;;;;;;5033677;28;20192;-74
2023/02/25 10:55:59;;;;;;;9.98;4.65;;;;;;;;;;5051870;28;20245;-74
2023/02/25 10:58:33;;;;;;;8.07;4.40;;;;;;;;;;5054267;28;20202;-74
2023/02/25 11:01:04;;;;;;;10.57;4.50;;;;;;;;;;5054204;28;20198;-74
2023/02/25 11:03:32;;;;;;;9.00;4.82;;;;;;;;;;5053537;28;20229;-74
2023/02/25 11:06:14;;;;;;;9.43;4.47;;;;;;;;;;5045461;28;20718;-74
2023/02/25 11:08:43;;;;;;;9.93;3.60;;;;;;;;;;5045991;28;20560;-74
2023/02/25 11:11:15;;;;;;;8.77;4.00;;;;;;;;;;5053813;28;20575;-74
2023/02/25 11:13:42;;;;;;;6.55;3.75;;;;;;;;;;5058007;28;20656;-76
2023/02/25 11:16:12;;;;;;;5.97;3.25;;;;;;;;;;5046395;28;20217;-76
2023/02/25 11:18:40;;;;;;;6.35;2.65;;;;;;;;;;5051535;28;20206;-76
2023/02/25 11:21:08;;;;;;;2.00;1.85;;;;;;;;;;5053861;28;20191;-76
2023/02/25 11:23:36;;;;;;;3.95;2.53;;;;;;;;;;5052284;28;20221;-76
2023/02/25 11:26:05;;;;;;;4.60;1.90;;;;;;;;;;5054227;28;20222;-75
2023/02/25 11:28:35;;;;;;;5.60;1.60;;;;;;;;;;5048809;28;20199;-77
2023/02/25 11:31:08;;;;;;;2.50;1.70;;;;;;;;;;5051548;28;20222;-75
2023/02/25 11:33:39;;;;;;;1.80;1.70;;;;;;;;;;5052646;28;20203;-76
2023/02/25 11:36:07;;;;;;;2.30;2.10;;;;;;;;;;5054045;28;20216;-76
2023/02/25 11:38:35;;;;;;;1.95;1.83;;;;;;;;;;5051794;28;20199;-76
2023/02/25 11:41:03;;;;;;;2.50;2.17;;;;;;;;;;5041519;28;20254;-76
2023/02/25 11:43:36;;;;;;;3.20;2.28;;;;;;;;;;5053021;28;20583;-76
2023/02/25 11:46:05;;;;;;;4.53;2.10;;;;;;;;;;5032552;28;20226;-76
2023/02/25 11:48:39;;;;;;;3.47;2.15;;;;;;;;;;5032986;28;20261;-76
2023/02/25 11:51:13;;;;;;;7.50;1.90;;;;;;;;;;5039962;28;20195;-76
2023/02/25 11:53:50;;;;;;;3.85;2.15;;;;;;;;;;5048909;28;20191;-76
2023/02/25 11:56:20;;;;;;;4.35;1.90;;;;;;;;;;5038231;28;20221;-76
2023/02/25 11:58:54;;;;;;;4.18;1.83;;;;;;;;;;5053057;28;20203;-76
2023/02/25 12:01:25;;;;;;;3.78;2.10;;;;;;;;;;5037598;28;20217;-76
2023/02/25 12:04:06;;;;;;;3.97;2.00;;;;;;;;;;5051949;28;20211;-76
2023/02/25 12:06:37;;;;;;;4.13;1.92;;;;;;;;;;5060594;22;20696;-72
2023/02/25 12:09:14;;;;;;;4.70;1.80;;;;;;;;;;5046186;28;20195;-72
2023/02/25 12:12:02;;;;;;;1.90;1.80;;;;;;;;;;5046458;28;20194;-72
2023/02/25 12:14:46;;;;;;;3.85;2.25;;;;;;;;;;5044206;28;20195;-70
2023/02/25 12:17:26;;;;;;;7.18;2.10;;;;;;;;;;5029032;28;20203;-71
2023/02/25 12:20:13;;;;;;;3.35;2.63;;;;;;;;;;5026661;28;20675;-73
2023/02/25 12:22:59;;;;;;;9.43;2.33;;;;;;;;;;5013103;28;20306;-72
2023/02/25 12:25:35;;;;;;;3.03;2.10;;;;;;;;;;5012785;28;20231;-72
2023/02/25 12:28:21;;;;;;;4.28;2.30;;;;;;;;;;5019097;28;20206;-72
2023/02/25 12:31:00;;;;;;;2.42;2.20;;;;;;;;;;5028816;28;20199;-72
2023/02/25 12:33:34;;;;;;;4.07;2.83;;;;;;;;;;5032608;28;20656;-72
2023/02/25 12:36:11;;;;;;;4.00;2.90;;;;;;;;;;5029303;28;20218;-73
2023/02/25 12:38:56;;;;;;;5.63;2.90;;;;;;;;;;5019078;28;20591;-73
2023/02/25 12:41:34;;;;;;;5.65;2.80;;;;;;;;;;5023344;28;20203;-72
2023/02/25 12:44:09;;;;;;;9.70;4.15;;;;;;;;;;5019005;28;20241;-72
2023/02/25 12:46:46;;;;;;;8.20;3.92;;;;;;;;;;5034126;28;20590;-72
2023/02/25 12:49:32;;;;;;;8.68;3.75;;;;;;;;;;5032584;28;20203;-72
2023/02/25 12:52:12;;;;;;;6.75;3.55;;;;;;;;;;5031603;28;20203;-72
2023/02/25 12:54:52;;;;;;;5.80;3.92;;;;;;;;;;5023589;28;20582;-72
2023/02/25 12:57:38;;;;;;;6.82;3.60;;;;;;;;;;5013029;28;20196;-72
2023/02/25 13:00:22;;;;;;;5.35;3.38;;;;;;;;;;5031127;28;20191;-71
2023/02/25 13:02:57;;;;;;;10.80;4.85;;;;;;;;;;5030217;28;20226;-71
2023/02/25 13:05:43;;;;;;;11.95;4.40;;;;;;;;;;5031594;28;20591;-72
2023/02/25 13:08:19;;;;;;;6.07;4.55;;;;;;;;;;5029850;28;20200;-72
2023/02/25 13:10:54;;;;;;;9.13;5.05;;;;;;;;;;5029620;28;20209;-71
2023/02/25 13:13:30;;;;;;;6.90;4.55;;;;;;;;;;5011496;28;20218;-71
2023/02/25 13:16:05;;;;;;;9.82;4.40;;;;;;;;;;5028922;28;20222;-71
2023/02/25 13:18:35;;;;;;;7.03;3.92;;;;;;;;;;5019080;28;20196;-71
2023/02/25 13:21:11;;;;;;;9.45;2.72;;;;;;;;;;5019974;28;20592;-71
2023/02/25 13:23:44;;;;;;;11.60;2.38;;;;;;;;;;5026727;28;20211;-71
2023/02/25 13:26:21;;;;;;;7.30;2.67;;;;;;;;;;5030189;28;20223;-71
2023/02/25 13:28:57;;;;;;;7.20;2.70;;;;;;;;;;5030998;28;20206;-74
2023/02/25 13:31:27;;;;;;;6.45;2.42;;;;;;;;;;5029639;28;20199;-71
2023/02/25 13:33:59;;;;;;;6.18;2.85;;;;;;;;;;5029733;28;20542;-70
2023/02/25 13:36:41;;;;;;;6.80;2.53;;;;;;;;;;5029121;28;20220;-71
2023/02/25 13:39:29;;;;;;;4.25;2.70;;;;;;;;;;5012653;28;20226;-71
2023/02/25 13:42:08;;;;;;;3.75;2.50;;;;;;;;;;5028831;28;20744;-70
2023/02/25 13:44:52;;;;;;;9.85;2.15;;;;;;;;;;5028087;28;20206;-70
2023/02/25 13:47:33;;;;;;;10.23;3.15;;;;;;;;;;5023666;28;20200;-73
2023/02/25 13:50:18;;;;;;;5.85;3.30;;;;;;;;;;5021457;28;20645;-71
2023/02/25 13:52:50;;;;;;;8.65;3.17;;;;;;;;;;5031032;28;20198;-70
2023/02/25 13:55:32;;;;;;;8.85;2.70;;;;;;;;;;5031656;28;20222;-72
2023/02/25 13:58:12;;;;;;;13.68;3.40;;;;;;;;;;5031532;28;20203;-71
2023/02/25 14:00:55;;;;;;;3.30;2.90;;;;;;;;;;5031793;28;20206;-73
2023/02/25 14:03:32;;;;;;;9.02;3.08;;;;;;;;;;5028367;28;20245;-73
2023/02/25 14:06:03;;;;;;;6.57;3.08;;;;;;;;;;5012465;28;20281;-73
2023/02/25 14:08:38;;;;;;;8.13;3.05;;;;;;;;;;5018396;28;20549;-73
2023/02/25 14:11:13;;;;;;;7.15;3.30;;;;;;;;;;5028334;28;20631;-73
2023/02/25 14:13:48;;;;;;;12.48;2.65;;;;;;;;;;5015406;28;20191;-73
2023/02/25 14:16:25;;;;;;;7.97;3.85;;;;;;;;;;5029236;28;20219;-71
2023/02/25 14:18:56;;;;;;;12.13;3.00;;;;;;;;;;5028811;28;20249;-71
2023/02/25 14:21:50;;;;;;;5.10;2.38;;;;;;;;;;5034961;28;20207;-71
2023/02/25 14:24:19;;;;;;;5.45;2.20;;;;;;;;;;5035007;28;20238;-71
2023/02/25 14:26:52;;;;;;;14.43;2.85;;;;;;;;;;5035177;28;20226;-71
2023/02/25 14:29:25;;;;;;;3.47;2.70;;;;;;;;;;5035585;28;20238;-70
2023/02/25 14:31:59;;;;;;;6.07;2.55;;;;;;;;;;5027945;28;20286;-71
2023/02/25 14:34:35;;;;;;;6.63;2.85;;;;;;;;;;5023226;28;20191;-71
2023/02/25 14:37:08;;;;;;;6.35;2.30;;;;;;;;;;5017971;28;20219;-71
2023/02/25 14:39:41;;;;;;;8.75;3.17;;;;;;;;;;5016681;28;20199;-71
2023/02/25 14:42:16;;;;;;;5.35;2.35;;;;;;;;;;5034919;28;20210;-71
2023/02/25 14:44:45;;;;;;;11.82;2.42;;;;;;;;;;5033236;28;20585;-70
2023/02/25 14:47:17;;;;;;;9.23;3.38;;;;;;;;;;5014481;28;20685;-71
2023/02/25 14:49:48;;;;;;;4.35;2.45;;;;;;;;;;5014698;28;20679;-72
2023/02/25 14:52:25;;;;;;;6.30;3.42;;;;;;;;;;5013933;28;20200;-71
2023/02/25 14:55:12;;;;;;;9.00;3.05;;;;;;;;;;5014977;28;20203;-72